createdAt,value
2023-12-30T00:00:25.086Z,100112.40
2023-12-30T00:01:57.012Z,100116.60
2023-12-30T00:03:29.017Z,100124.00
2023-12-30T00:05:01.611Z,100120.80
2023-12-30T00:06:35.443Z,100124.60
2023-12-30T00:08:07.429Z,100119.40
2023-12-30T00:09:39.338Z,100123.20
2023-12-30T00:11:11.220Z,100118.80
2023-12-30T00:12:43.026Z,100123.00
2023-12-30T00:14:14.939Z,100122.40
2023-12-30T00:15:46.784Z,100124.20
2023-12-30T00:17:18.651Z,100127.20
2023-12-30T00:18:50.675Z,100129.80
2023-12-30T00:20:23.565Z,100137.80
2023-12-30T00:21:55.433Z,100142.40
2023-12-30T00:23:30.099Z,100138.80
2023-12-30T00:25:07.050Z,100139.40
2023-12-30T00:26:38.872Z,100142.00
2023-12-30T00:28:14.130Z,100141.20
2023-12-30T00:29:46.123Z,100145.40
2023-12-30T00:31:29.116Z,100144.80
2023-12-30T00:33:01.205Z,100134.60
2023-12-30T00:34:35.035Z,100139.60
2023-12-30T00:36:07.436Z,100145.20
2023-12-30T00:37:39.447Z,100149.00
2023-12-30T00:39:12.392Z,100142.00
2023-12-30T00:40:44.304Z,100151.80
2023-12-30T00:42:16.740Z,100148.00
2023-12-30T00:43:49.055Z,100161.00
2023-12-30T00:45:20.841Z,100163.60
2023-12-30T00:46:52.665Z,100162.00
2023-12-30T00:48:24.586Z,100160.60
2023-12-30T00:49:56.546Z,100164.00
2023-12-30T00:51:37.446Z,100169.20
2023-12-30T00:53:09.195Z,100173.00
2023-12-30T00:54:47.903Z,100174.00
2023-12-30T00:56:23.546Z,100177.00
2023-12-30T00:57:55.300Z,100178.60
2023-12-30T00:59:27.102Z,100183.00
2023-12-30T01:00:59.152Z,100183.40
2023-12-30T01:02:30.929Z,100187.00
2023-12-30T01:04:02.700Z,100187.00
2023-12-30T01:05:34.577Z,100191.20
2023-12-30T01:07:06.516Z,100184.80
2023-12-30T01:08:38.597Z,100195.00
2023-12-30T01:10:10.988Z,100192.60
2023-12-30T01:11:43.458Z,100193.20
2023-12-30T01:13:16.094Z,100201.80
2023-12-30T01:14:47.877Z,100205.60
2023-12-30T01:16:19.687Z,100195.60
2023-12-30T01:17:51.880Z,100202.20
2023-12-30T01:19:25.935Z,100192.00
2023-12-30T01:20:57.710Z,100195.00
2023-12-30T01:22:29.736Z,100196.00
2023-12-30T01:24:01.623Z,100195.00
2023-12-30T01:25:33.384Z,100196.60
2023-12-30T01:27:05.632Z,100196.40
2023-12-30T01:28:38.104Z,100191.40
2023-12-30T01:30:10.238Z,100200.20
2023-12-30T01:31:42.362Z,100201.00
2023-12-30T01:33:14.259Z,100204.80
2023-12-30T01:34:46.208Z,100205.60
2023-12-30T01:36:18.127Z,100216.60
2023-12-30T01:37:49.896Z,100224.80
2023-12-30T01:39:21.660Z,100219.80
2023-12-30T01:40:54.306Z,100222.40
2023-12-30T01:42:26.121Z,100229.20
2023-12-30T01:43:57.892Z,100236.20
2023-12-30T01:45:30.020Z,100235.60
2023-12-30T01:47:02.634Z,100240.20
2023-12-30T01:48:36.175Z,100241.80
2023-12-30T01:50:10.387Z,100246.20
2023-12-30T01:51:42.181Z,100248.40
2023-12-30T01:53:16.531Z,100251.60
2023-12-30T01:54:48.438Z,100260.20
2023-12-30T01:56:20.793Z,100262.20
2023-12-30T01:57:52.808Z,100257.40
2023-12-30T01:59:25.909Z,100257.40
2023-12-30T02:00:59.565Z,100270.60
2023-12-30T02:02:31.473Z,100268.00
2023-12-30T02:04:03.490Z,100260.40
2023-12-30T02:05:36.292Z,100264.20
2023-12-30T02:07:08.794Z,100251.60
2023-12-30T02:08:40.770Z,100257.60
2023-12-30T02:10:13.306Z,100263.40
2023-12-30T02:11:45.364Z,100262.20
2023-12-30T02:13:17.575Z,100264.00
2023-12-30T02:14:49.448Z,100264.40
2023-12-30T02:16:21.324Z,100266.20
2023-12-30T02:17:57.460Z,100267.20
2023-12-30T02:19:29.743Z,100266.40
2023-12-30T02:21:01.532Z,100269.00
2023-12-30T02:22:33.878Z,100270.60
2023-12-30T02:24:05.957Z,100270.00
2023-12-30T02:25:38.235Z,100274.00
2023-12-30T02:27:10.758Z,100274.60
2023-12-30T02:28:42.567Z,100281.00
2023-12-30T02:30:15.267Z,100279.20
2023-12-30T02:31:47.556Z,100278.20
2023-12-30T02:33:19.541Z,100277.00
2023-12-30T02:34:51.366Z,100283.40
2023-12-30T02:36:23.198Z,100283.40
2023-12-30T02:37:55.026Z,100283.40
2023-12-30T02:39:26.859Z,100278.80
2023-12-30T02:40:58.581Z,100284.00
2023-12-30T02:42:30.364Z,100284.00
2023-12-30T02:44:04.538Z,100289.40
2023-12-30T02:45:36.481Z,100281.60
2023-12-30T02:47:08.456Z,100281.20
2023-12-30T02:48:40.436Z,100278.20
2023-12-30T02:50:12.245Z,100280.00
2023-12-30T02:51:44.120Z,100278.60
2023-12-30T02:53:16.078Z,100285.00
2023-12-30T02:54:47.941Z,100287.60
2023-12-30T02:56:25.629Z,100283.60
2023-12-30T02:57:57.528Z,100285.40
2023-12-30T02:59:31.035Z,100282.00
2023-12-30T03:01:02.939Z,100286.40
2023-12-30T03:02:34.773Z,100291.60
2023-12-30T03:04:06.667Z,100291.40
2023-12-30T03:05:38.510Z,100297.00
2023-12-30T03:07:10.621Z,100297.60
2023-12-30T03:08:42.420Z,100299.00
2023-12-30T03:10:14.466Z,100293.20
2023-12-30T03:11:46.740Z,100301.00
2023-12-30T03:13:19.495Z,100303.00
2023-12-30T03:14:51.389Z,100301.80
2023-12-30T03:16:23.268Z,100304.00
2023-12-30T03:17:55.112Z,100302.60
2023-12-30T03:19:27.427Z,100296.20
2023-12-30T03:21:00.202Z,100301.80
2023-12-30T03:22:33.756Z,100302.40
2023-12-30T03:24:06.272Z,100305.00
2023-12-30T03:25:38.613Z,100300.80
2023-12-30T03:27:11.280Z,100298.20
2023-12-30T03:28:44.907Z,100300.80
2023-12-30T03:30:16.839Z,100298.60
2023-12-30T03:31:48.742Z,100297.20
2023-12-30T03:33:20.762Z,100297.40
2023-12-30T03:34:52.687Z,100293.80
2023-12-30T03:36:24.901Z,100302.80
2023-12-30T03:37:56.713Z,100307.40
2023-12-30T03:39:28.720Z,100302.40
2023-12-30T03:41:00.468Z,100309.20
2023-12-30T03:42:32.243Z,100307.20
2023-12-30T03:44:04.376Z,100307.60
2023-12-30T03:45:36.098Z,100313.00
2023-12-30T03:47:07.865Z,100303.60
2023-12-30T03:48:39.903Z,100302.60
2023-12-30T03:50:12.692Z,100312.20
2023-12-30T03:51:45.139Z,100312.00
2023-12-30T03:53:17.523Z,100314.60
2023-12-30T03:54:49.352Z,100312.40
2023-12-30T03:56:21.109Z,100313.80
2023-12-30T03:57:54.900Z,100317.00
2023-12-30T03:59:26.711Z,100310.80
2023-12-30T04:00:58.593Z,100314.40
2023-12-30T04:02:30.439Z,100316.20
2023-12-30T04:04:03.992Z,100321.20
2023-12-30T04:05:36.223Z,100319.20
2023-12-30T04:07:08.180Z,100319.40
2023-12-30T04:08:40.008Z,100310.80
2023-12-30T04:10:14.255Z,100318.20
2023-12-30T04:11:46.306Z,100323.80
2023-12-30T04:13:18.171Z,100324.60
2023-12-30T04:14:49.987Z,100324.20
2023-12-30T04:16:22.158Z,100325.80
2023-12-30T04:17:54.123Z,100318.20
2023-12-30T04:19:26.206Z,100318.40
2023-12-30T04:20:58.268Z,100320.20
2023-12-30T04:22:30.358Z,100315.40
2023-12-30T04:24:02.266Z,100322.00
2023-12-30T04:25:34.560Z,100322.00
2023-12-30T04:27:06.450Z,100335.00
2023-12-30T04:28:38.274Z,100358.80
2023-12-30T04:30:10.874Z,100366.60
2023-12-30T04:31:42.981Z,100354.40
2023-12-30T04:33:14.895Z,100356.20
2023-12-30T04:34:46.759Z,100351.60
2023-12-30T04:36:19.039Z,100345.00
2023-12-30T04:37:51.659Z,100337.40
2023-12-30T04:39:26.474Z,100341.20
2023-12-30T04:41:02.173Z,100345.60
2023-12-30T04:42:34.210Z,100344.80
2023-12-30T04:44:06.918Z,100338.00
2023-12-30T04:45:38.706Z,100335.20
2023-12-30T04:47:13.448Z,100339.20
2023-12-30T04:48:45.404Z,100342.20
2023-12-30T04:50:17.277Z,100331.00
2023-12-30T04:51:49.043Z,100333.00
2023-12-30T04:53:20.852Z,100344.60
2023-12-30T04:54:52.714Z,100340.20
2023-12-30T04:56:24.582Z,100341.20
2023-12-30T04:57:56.518Z,100338.60
2023-12-30T04:59:28.478Z,100338.20
2023-12-30T05:01:00.432Z,100345.60
2023-12-30T05:02:32.456Z,100346.80
2023-12-30T05:04:04.737Z,100346.20
2023-12-30T05:05:36.779Z,100349.20
2023-12-30T05:07:08.625Z,100340.60
2023-12-30T05:08:40.693Z,100347.80
2023-12-30T05:10:12.641Z,100344.00
2023-12-30T05:11:45.942Z,100344.40
2023-12-30T05:13:18.068Z,100348.60
2023-12-30T05:14:49.985Z,100348.20
2023-12-30T05:16:21.837Z,100347.60
2023-12-30T05:17:55.039Z,100345.40
2023-12-30T05:19:26.988Z,100350.40
2023-12-30T05:20:58.815Z,100361.60
2023-12-30T05:22:30.722Z,100356.80
2023-12-30T05:24:02.878Z,100360.40
2023-12-30T05:25:34.903Z,100358.20
2023-12-30T05:27:06.796Z,100363.00
2023-12-30T05:28:38.644Z,100367.40
2023-12-30T05:30:10.925Z,100366.00
2023-12-30T05:31:42.878Z,100367.80
2023-12-30T05:33:14.854Z,100363.00
2023-12-30T05:34:46.697Z,100368.20
2023-12-30T05:36:18.504Z,100379.80
2023-12-30T05:37:51.403Z,100373.80
2023-12-30T05:39:23.357Z,100377.20
2023-12-30T05:40:55.124Z,100372.80
2023-12-30T05:42:26.972Z,100371.00
2023-12-30T05:43:58.728Z,100376.80
2023-12-30T05:45:30.437Z,100378.20
2023-12-30T05:47:02.182Z,100388.00
2023-12-30T05:48:35.053Z,100394.40
2023-12-30T05:50:08.054Z,100388.20
2023-12-30T05:51:43.943Z,100389.40
2023-12-30T05:53:15.777Z,100388.60
2023-12-30T05:54:47.679Z,100382.40
2023-12-30T05:56:27.926Z,100387.60
2023-12-30T05:57:59.850Z,100389.20
2023-12-30T05:59:31.715Z,100393.60
2023-12-30T06:01:03.756Z,100387.80
2023-12-30T06:02:35.590Z,100390.80
2023-12-30T06:04:07.401Z,100388.60
2023-12-30T06:05:39.288Z,100398.60
2023-12-30T06:07:11.154Z,100397.40
2023-12-30T06:08:43.189Z,100400.60
2023-12-30T06:10:15.299Z,100407.40
2023-12-30T06:11:47.166Z,100414.00
2023-12-30T06:13:18.991Z,100412.60
2023-12-30T06:14:51.991Z,100420.20
2023-12-30T06:16:23.843Z,100420.00
2023-12-30T06:17:55.787Z,100423.60
2023-12-30T06:19:27.827Z,100422.80
2023-12-30T06:21:00.040Z,100425.20
2023-12-30T06:22:32.569Z,100432.20
2023-12-30T06:24:04.695Z,100433.60
2023-12-30T06:25:36.670Z,100431.60
2023-12-30T06:27:08.447Z,100434.00
2023-12-30T06:28:40.412Z,100437.20
2023-12-30T06:30:12.652Z,100434.00
2023-12-30T06:31:44.638Z,100437.20
2023-12-30T06:33:17.765Z,100437.60
2023-12-30T06:34:50.112Z,100438.60
2023-12-30T06:36:24.113Z,100440.60
2023-12-30T06:37:55.960Z,100435.40
2023-12-30T06:39:27.772Z,100440.00
2023-12-30T06:40:59.863Z,100439.60
2023-12-30T06:42:31.598Z,100437.60
2023-12-30T06:44:03.428Z,100441.80
2023-12-30T06:45:35.585Z,100440.20
2023-12-30T06:47:07.360Z,100436.20
2023-12-30T06:48:39.209Z,100438.20
2023-12-30T06:50:13.526Z,100441.00
2023-12-30T06:51:45.383Z,100444.80
2023-12-30T06:53:17.195Z,100447.00
2023-12-30T06:54:55.996Z,100443.20
2023-12-30T06:56:34.672Z,100447.80
2023-12-30T06:58:06.538Z,100446.60
2023-12-30T06:59:38.381Z,100446.40
2023-12-30T07:01:10.297Z,100450.60
2023-12-30T07:02:43.103Z,100451.60
2023-12-30T07:04:15.644Z,100450.60
2023-12-30T07:05:47.702Z,100450.00
2023-12-30T07:07:19.705Z,100448.40
2023-12-30T07:08:51.554Z,100449.20
2023-12-30T07:10:23.462Z,100454.60
2023-12-30T07:11:55.261Z,100459.60
2023-12-30T07:13:27.068Z,100464.40
2023-12-30T07:14:58.939Z,100463.40
2023-12-30T07:16:30.744Z,100468.40
2023-12-30T07:18:03.291Z,100463.40
2023-12-30T07:19:35.210Z,100464.40
2023-12-30T07:21:06.970Z,100464.60
2023-12-30T07:22:38.860Z,100473.20
2023-12-30T07:24:10.664Z,100469.40
2023-12-30T07:25:42.598Z,100469.80
2023-12-30T07:27:16.286Z,100477.80
2023-12-30T07:28:48.044Z,100475.00
2023-12-30T07:30:20.016Z,100476.20
2023-12-30T07:31:51.857Z,100477.80
2023-12-30T07:33:24.309Z,100470.80
2023-12-30T07:34:56.287Z,100476.80
2023-12-30T07:36:28.473Z,100471.20
2023-12-30T07:38:00.301Z,100471.00
2023-12-30T07:39:34.039Z,100477.20
2023-12-30T07:41:05.967Z,100479.60
2023-12-30T07:42:37.682Z,100480.80
2023-12-30T07:44:09.725Z,100481.00
2023-12-30T07:45:41.700Z,100483.40
2023-12-30T07:47:13.488Z,100486.40
2023-12-30T07:48:45.417Z,100481.00
2023-12-30T07:50:17.315Z,100483.60
2023-12-30T07:51:49.327Z,100484.60
2023-12-30T07:53:21.173Z,100488.00
2023-12-30T07:54:53.936Z,100490.40
2023-12-30T07:56:25.783Z,100494.60
2023-12-30T07:57:57.616Z,100489.80
2023-12-30T07:59:29.400Z,100489.80
2023-12-30T08:01:01.250Z,100487.40
2023-12-30T08:02:33.098Z,100492.60
2023-12-30T08:04:05.228Z,100492.60
2023-12-30T08:05:37.062Z,100497.20
2023-12-30T08:07:08.817Z,100497.40
2023-12-30T08:08:40.726Z,100493.40
2023-12-30T08:10:12.629Z,100494.00
2023-12-30T08:11:50.621Z,100502.60
2023-12-30T08:13:30.756Z,100503.80
2023-12-30T08:15:02.611Z,100503.00
2023-12-30T08:16:37.140Z,100506.40
2023-12-30T08:18:09.475Z,100504.00
2023-12-30T08:19:41.335Z,100508.60
2023-12-30T08:21:13.111Z,100511.00
2023-12-30T08:22:45.002Z,100514.00
2023-12-30T08:24:20.269Z,100514.80
2023-12-30T08:25:52.089Z,100512.20
2023-12-30T08:27:23.914Z,100510.80
2023-12-30T08:28:56.548Z,100512.80
2023-12-30T08:30:28.356Z,100512.00
2023-12-30T08:32:00.590Z,100515.60
2023-12-30T08:33:32.367Z,100518.00
2023-12-30T08:35:08.728Z,100519.00
2023-12-30T08:36:40.578Z,100521.80
2023-12-30T08:38:12.417Z,100523.80
2023-12-30T08:39:44.360Z,100520.80
2023-12-30T08:41:16.279Z,100518.20
2023-12-30T08:42:48.308Z,100519.40
2023-12-30T08:44:20.183Z,100513.80
2023-12-30T08:45:52.002Z,100521.60
2023-12-30T08:47:23.832Z,100514.00
2023-12-30T08:48:55.827Z,100516.20
2023-12-30T08:50:27.692Z,100514.40
2023-12-30T08:52:00.316Z,100516.60
2023-12-30T08:53:32.428Z,100517.60
2023-12-30T08:55:10.829Z,100527.40
2023-12-30T08:56:43.361Z,100526.20
2023-12-30T08:58:15.231Z,100532.60
2023-12-30T08:59:48.499Z,100537.40
2023-12-30T09:01:20.406Z,100536.60
2023-12-30T09:02:56.205Z,100536.00
2023-12-30T09:04:28.152Z,100542.80
2023-12-30T09:06:00.103Z,100542.20
2023-12-30T09:07:33.287Z,100542.80
2023-12-30T09:09:05.668Z,100540.60
2023-12-30T09:10:39.118Z,100551.80
2023-12-30T09:12:11.059Z,100557.20
2023-12-30T09:13:42.993Z,100560.00
2023-12-30T09:15:15.090Z,100566.60
2023-12-30T09:16:47.108Z,100567.40
2023-12-30T09:18:19.441Z,100566.20
2023-12-30T09:19:51.445Z,100567.80
2023-12-30T09:21:23.303Z,100575.80
2023-12-30T09:22:55.452Z,100569.00
2023-12-30T09:24:27.229Z,100570.00
2023-12-30T09:25:59.143Z,100572.20
2023-12-30T09:27:30.896Z,100575.80
2023-12-30T09:29:02.670Z,100574.80
2023-12-30T09:30:34.447Z,100577.80
2023-12-30T09:32:06.998Z,100584.20
2023-12-30T09:33:38.873Z,100589.00
2023-12-30T09:35:10.929Z,100586.80
2023-12-30T09:36:42.785Z,100587.00
2023-12-30T09:38:14.651Z,100591.40
2023-12-30T09:39:47.002Z,100593.20
2023-12-30T09:41:25.913Z,100596.00
2023-12-30T09:43:06.448Z,100597.00
2023-12-30T09:44:40.646Z,100596.00
2023-12-30T09:46:13.866Z,100599.40
2023-12-30T09:47:47.118Z,100599.60
2023-12-30T09:49:20.528Z,100608.00
2023-12-30T09:50:57.271Z,100603.60
2023-12-30T09:52:29.601Z,100606.60
2023-12-30T09:54:01.469Z,100604.00
2023-12-30T09:55:33.283Z,100603.80
2023-12-30T09:57:06.893Z,100601.80
2023-12-30T09:58:41.415Z,100602.00
2023-12-30T10:00:20.207Z,100604.40
2023-12-30T10:01:52.429Z,100610.00
2023-12-30T10:03:25.096Z,100604.00
2023-12-30T10:04:58.988Z,100606.20
2023-12-30T10:06:34.619Z,100600.60
2023-12-30T10:08:07.699Z,100603.20
2023-12-30T10:09:39.661Z,100597.40
2023-12-30T10:11:12.160Z,100602.40
2023-12-30T10:12:44.335Z,100591.60
2023-12-30T10:14:16.880Z,100592.20
2023-12-30T10:15:49.939Z,100591.80
2023-12-30T10:17:22.057Z,100587.60
2023-12-30T10:18:54.437Z,100596.60
2023-12-30T10:20:26.370Z,100587.20
2023-12-30T10:21:58.437Z,100581.40
2023-12-30T10:23:32.417Z,100585.00
2023-12-30T10:25:04.755Z,100585.60
2023-12-30T10:26:38.718Z,100585.80
2023-12-30T10:28:10.824Z,100587.40
2023-12-30T10:29:47.174Z,100578.20
2023-12-30T10:31:25.825Z,100572.00
2023-12-30T10:33:15.476Z,100573.00
2023-12-30T10:34:47.281Z,100568.80
2023-12-30T10:36:20.261Z,100563.00
2023-12-30T10:37:52.236Z,100562.80
2023-12-30T10:39:24.367Z,100566.20
2023-12-30T10:40:56.375Z,100566.40
2023-12-30T10:42:28.244Z,100574.60
2023-12-30T10:44:00.170Z,100562.80
2023-12-30T10:45:32.452Z,100569.60
2023-12-30T10:47:07.041Z,100572.00
2023-12-30T10:48:57.525Z,100566.60
2023-12-30T10:50:29.702Z,100570.80
2023-12-30T10:52:09.009Z,100564.60
2023-12-30T10:53:46.345Z,100566.80
2023-12-30T10:55:21.532Z,100570.20
2023-12-30T10:57:07.175Z,100565.40
2023-12-30T11:00:16.482Z,100566.20
2023-12-30T11:01:49.399Z,100565.80
2023-12-30T11:03:22.860Z,100570.60
2023-12-30T11:04:57.404Z,100565.20
2023-12-30T11:06:50.832Z,100562.60
2023-12-30T11:08:23.271Z,100566.20
2023-12-30T11:09:55.116Z,100571.40
2023-12-30T11:11:26.904Z,100567.00
2023-12-30T11:12:58.714Z,100563.40
2023-12-30T11:14:30.571Z,100568.60
2023-12-30T11:16:20.266Z,100560.40
2023-12-30T11:17:52.419Z,100569.60
2023-12-30T11:19:30.890Z,100568.20
2023-12-30T11:21:03.217Z,100565.20
2023-12-30T11:22:37.037Z,100565.80
2023-12-30T11:24:14.342Z,100570.20
2023-12-30T11:25:49.195Z,100568.60
2023-12-30T11:27:23.430Z,100566.80
2023-12-30T11:28:55.346Z,100561.00
2023-12-30T11:30:27.483Z,100565.80
2023-12-30T11:32:02.446Z,100565.80
2023-12-30T11:33:34.643Z,100567.40
2023-12-30T11:35:06.946Z,100573.60
2023-12-30T11:36:40.669Z,100569.00
2023-12-30T11:38:13.374Z,100570.60
2023-12-30T11:39:47.334Z,100572.40
2023-12-30T11:41:20.507Z,100569.40
2023-12-30T11:42:52.424Z,100568.00
2023-12-30T11:44:24.490Z,100570.00
2023-12-30T11:45:56.413Z,100564.20
2023-12-30T11:47:29.995Z,100559.20
2023-12-30T11:49:02.150Z,100562.80
2023-12-30T11:50:36.913Z,100561.20
2023-12-30T11:52:09.180Z,100554.60
2023-12-30T11:53:41.111Z,100558.60
2023-12-30T11:55:13.308Z,100557.80
2023-12-30T11:56:45.523Z,100554.00
2023-12-30T11:58:18.388Z,100550.20
2023-12-30T11:59:52.033Z,100544.40
2023-12-30T12:01:24.218Z,100540.60
2023-12-30T12:02:57.281Z,100537.60
2023-12-30T12:04:30.448Z,100536.80
2023-12-30T12:06:02.376Z,100537.40
2023-12-30T12:07:35.730Z,100530.80
2023-12-30T12:09:08.774Z,100525.00
2023-12-30T12:10:41.362Z,100521.40
2023-12-30T12:12:13.430Z,100531.20
2023-12-30T12:13:47.758Z,100519.00
2023-12-30T12:15:20.431Z,100515.00
2023-12-30T12:16:52.645Z,100519.80
2023-12-30T12:18:25.473Z,100512.60
2023-12-30T12:19:58.395Z,100509.80
2023-12-30T12:21:30.589Z,100515.00
2023-12-30T12:23:05.290Z,100513.40
2023-12-30T12:24:37.179Z,100518.80
2023-12-30T12:26:09.984Z,100507.40
2023-12-30T12:27:42.149Z,100511.20
2023-12-30T12:29:14.135Z,100507.40
2023-12-30T12:30:46.496Z,100502.20
2023-12-30T12:32:23.160Z,100496.20
2023-12-30T12:33:54.956Z,100506.60
2023-12-30T12:35:26.760Z,100503.00
2023-12-30T12:36:58.610Z,100501.40
2023-12-30T12:38:30.572Z,100498.40
2023-12-30T12:40:02.499Z,100504.60
2023-12-30T12:41:36.297Z,100503.80
2023-12-30T12:43:08.413Z,100502.20
2023-12-30T12:44:41.067Z,100504.80
2023-12-30T12:46:13.194Z,100500.00
2023-12-30T12:47:46.726Z,100497.80
2023-12-30T12:49:20.736Z,100501.00
2023-12-30T12:50:56.745Z,100504.60
2023-12-30T12:52:28.730Z,100499.40
2023-12-30T12:54:00.544Z,100502.80
2023-12-30T12:55:32.429Z,100506.40
2023-12-30T12:57:04.682Z,100500.80
2023-12-30T12:58:36.982Z,100493.00
2023-12-30T13:00:10.603Z,100496.00
2023-12-30T13:01:42.826Z,100493.40
2023-12-30T13:03:14.872Z,100485.60
2023-12-30T13:04:47.041Z,100495.80
2023-12-30T13:06:19.056Z,100492.80
2023-12-30T13:07:51.293Z,100488.60
2023-12-30T13:09:41.909Z,100495.20
2023-12-30T13:11:14.664Z,100492.60
2023-12-30T13:12:47.480Z,100494.80
2023-12-30T13:14:21.965Z,100485.60
2023-12-30T13:15:56.329Z,100492.00
2023-12-30T13:17:28.174Z,100488.60
2023-12-30T13:19:01.156Z,100489.00
2023-12-30T13:20:32.968Z,100482.40
2023-12-30T13:22:05.197Z,100487.40
2023-12-30T13:23:37.015Z,100481.60
2023-12-30T13:25:11.031Z,100480.80
2023-12-30T13:26:46.579Z,100479.60
2023-12-30T13:28:18.877Z,100486.00
2023-12-30T13:29:50.840Z,100474.60
2023-12-30T13:31:25.735Z,100478.40
2023-12-30T13:32:59.146Z,100475.00
2023-12-30T13:34:32.552Z,100474.40
2023-12-30T13:36:12.500Z,100477.00
2023-12-30T13:37:45.567Z,100471.40
2023-12-30T13:39:18.415Z,100468.80
2023-12-30T13:40:54.254Z,100468.80
2023-12-30T13:42:26.584Z,100466.60
2023-12-30T13:43:59.698Z,100472.60
2023-12-30T13:45:34.046Z,100471.60
2023-12-30T13:47:26.260Z,100475.20
2023-12-30T13:49:01.380Z,100471.20
2023-12-30T13:50:44.613Z,100464.40
2023-12-30T13:52:17.419Z,100467.20
2023-12-30T13:53:49.434Z,100457.60
2023-12-30T13:55:22.877Z,100452.80
2023-12-30T13:57:02.977Z,100457.20
2023-12-30T13:58:34.843Z,100460.60
2023-12-30T14:00:08.399Z,100456.00
2023-12-30T14:01:40.877Z,100455.20
2023-12-30T14:03:13.433Z,100460.00
2023-12-30T14:04:49.872Z,100456.20
2023-12-30T14:06:29.655Z,100456.20
2023-12-30T14:08:16.768Z,100449.00
2023-12-30T14:11:33.864Z,100447.20
2023-12-30T14:13:06.583Z,100449.00
2023-12-30T14:14:52.218Z,100446.40
2023-12-30T14:16:24.140Z,100443.20
2023-12-30T14:17:56.312Z,100446.40
2023-12-30T14:19:28.707Z,100444.20
2023-12-30T14:21:00.727Z,100447.00
2023-12-30T14:22:34.000Z,100439.60
2023-12-30T14:24:06.451Z,100440.20
2023-12-30T14:25:40.099Z,100446.80
2023-12-30T14:27:13.607Z,100439.60
2023-12-30T14:28:45.613Z,100440.00
2023-12-30T14:30:17.997Z,100441.40
2023-12-30T14:31:49.782Z,100437.40
2023-12-30T14:33:22.942Z,100442.20
2023-12-30T14:34:55.012Z,100440.80
2023-12-30T14:36:26.905Z,100444.20
2023-12-30T14:37:58.817Z,100439.40
2023-12-30T14:39:30.712Z,100446.60
2023-12-30T14:41:03.653Z,100444.20
2023-12-30T14:42:36.425Z,100441.60
2023-12-30T14:44:09.284Z,100439.20
2023-12-30T14:45:41.279Z,100449.40
2023-12-30T14:47:13.134Z,100444.60
2023-12-30T14:48:45.597Z,100443.80
2023-12-30T14:50:17.816Z,100443.60
2023-12-30T14:51:49.699Z,100451.60
2023-12-30T14:53:21.469Z,100448.20
2023-12-30T14:55:01.677Z,100448.20
2023-12-30T14:56:35.745Z,100447.60
2023-12-30T14:58:10.510Z,100448.40
2023-12-30T14:59:42.451Z,100443.40
2023-12-30T15:01:14.342Z,100443.20
2023-12-30T15:02:46.516Z,100440.40
2023-12-30T15:04:18.537Z,100438.80
2023-12-30T15:05:50.700Z,100434.00
2023-12-30T15:07:22.710Z,100434.20
2023-12-30T15:08:55.393Z,100433.40
2023-12-30T15:10:27.406Z,100426.60
2023-12-30T15:11:59.271Z,100428.20
2023-12-30T15:13:31.092Z,100423.40
2023-12-30T15:15:04.624Z,100420.60
2023-12-30T15:16:36.474Z,100417.60
2023-12-30T15:18:08.564Z,100416.60
2023-12-30T15:19:40.562Z,100414.60
2023-12-30T15:21:12.553Z,100414.20
2023-12-30T15:22:44.556Z,100415.40
2023-12-30T15:24:17.946Z,100415.20
2023-12-30T15:25:50.129Z,100415.60
2023-12-30T15:27:22.537Z,100412.00
2023-12-30T15:28:54.371Z,100413.40
2023-12-30T15:30:26.229Z,100416.80
2023-12-30T15:31:58.395Z,100418.00
2023-12-30T15:33:31.382Z,100419.80
2023-12-30T15:35:03.643Z,100417.00
2023-12-30T15:36:35.481Z,100416.80
2023-12-30T15:38:07.758Z,100414.80
2023-12-30T15:39:39.745Z,100410.20
2023-12-30T15:41:12.387Z,100413.80
2023-12-30T15:42:44.240Z,100415.60
2023-12-30T15:44:16.119Z,100411.80
2023-12-30T15:45:48.587Z,100409.00
2023-12-30T15:47:21.971Z,100406.80
2023-12-30T15:48:53.910Z,100404.80
2023-12-30T15:50:25.780Z,100409.60
2023-12-30T15:51:57.982Z,100408.80
2023-12-30T15:53:30.075Z,100409.60
2023-12-30T15:55:02.168Z,100406.20
2023-12-30T15:56:34.418Z,100402.40
2023-12-30T15:58:06.767Z,100400.80
2023-12-30T15:59:39.155Z,100403.40
2023-12-30T16:01:10.951Z,100402.60
2023-12-30T16:02:43.178Z,100400.60
2023-12-30T16:04:15.229Z,100398.80
2023-12-30T16:05:48.367Z,100398.00
2023-12-30T16:07:20.198Z,100398.40
2023-12-30T16:08:52.209Z,100396.40
2023-12-30T16:10:27.290Z,100394.40
2023-12-30T16:12:00.205Z,100396.60
2023-12-30T16:13:33.785Z,100391.80
2023-12-30T16:15:06.800Z,100392.40
2023-12-30T16:16:45.133Z,100387.40
2023-12-30T16:18:17.598Z,100392.20
2023-12-30T16:19:49.699Z,100387.40
2023-12-30T16:21:21.539Z,100386.20
2023-12-30T16:22:53.321Z,100387.20
2023-12-30T16:24:25.112Z,100385.80
2023-12-30T16:25:56.955Z,100382.40
2023-12-30T16:27:28.816Z,100379.40
2023-12-30T16:29:02.294Z,100376.80
2023-12-30T16:30:34.187Z,100376.40
2023-12-30T16:32:06.356Z,100379.40
2023-12-30T16:33:41.740Z,100380.00
2023-12-30T16:35:14.117Z,100379.00
2023-12-30T16:36:46.119Z,100376.80
2023-12-30T16:38:18.369Z,100381.80
2023-12-30T16:39:52.695Z,100377.00
2023-12-30T16:41:25.586Z,100375.60
2023-12-30T16:42:57.785Z,100379.60
2023-12-30T16:44:29.523Z,100372.80
2023-12-30T16:46:02.156Z,100368.80
2023-12-30T16:47:35.651Z,100373.40
2023-12-30T16:49:08.176Z,100373.80
2023-12-30T16:50:40.560Z,100371.60
2023-12-30T16:52:12.489Z,100373.60
2023-12-30T16:53:44.548Z,100366.00
2023-12-30T16:55:16.709Z,100364.20
2023-12-30T16:56:48.992Z,100360.40
2023-12-30T16:58:20.842Z,100364.20
2023-12-30T16:59:53.672Z,100367.60
2023-12-30T17:01:25.559Z,100360.80
2023-12-30T17:02:57.801Z,100363.80
2023-12-30T17:04:29.847Z,100362.40
2023-12-30T17:06:02.084Z,100365.00
2023-12-30T17:07:34.517Z,100364.00
2023-12-30T17:09:06.560Z,100361.00
2023-12-30T17:10:38.511Z,100362.20
2023-12-30T17:12:10.407Z,100355.60
2023-12-30T17:13:50.144Z,100354.40
2023-12-30T17:15:25.328Z,100356.80
2023-12-30T17:16:57.122Z,100359.00
2023-12-30T17:18:29.072Z,100351.60
2023-12-30T17:20:00.842Z,100355.80
2023-12-30T17:21:33.643Z,100355.80
2023-12-30T17:23:07.118Z,100358.60
2023-12-30T17:24:38.920Z,100352.20
2023-12-30T17:26:11.795Z,100353.80
2023-12-30T17:27:43.649Z,100351.00
2023-12-30T17:29:16.835Z,100349.00
2023-12-30T17:30:48.748Z,100348.40
2023-12-30T17:32:21.750Z,100349.60
2023-12-30T17:33:53.783Z,100351.80
2023-12-30T17:35:27.752Z,100344.80
2023-12-30T17:36:59.528Z,100347.00
2023-12-30T17:38:31.424Z,100342.80
2023-12-30T17:40:07.210Z,100347.60
2023-12-30T17:41:39.000Z,100349.40
2023-12-30T17:43:10.861Z,100344.60